sensor_id;sensor_type;location;lat;lon;timestamp;noise_LAeq;noise_LA_min;noise_LA_max;noise_LA01;noise_LA95
74496;Laerm;62979;55.720;37.606;2022-12-13T00:02:08;52.36;47.47;72.17;;
74496;Laerm;62979;55.720;37.606;2022-12-13T00:04:35;53.20;47.56;75.41;;
74496;Laerm;62979;55.720;37.606;2022-12-13T00:07:02;51.44;46.79;75.64;;
74496;Laerm;62979;55.720;37.606;2022-12-13T00:09:30;53.23;47.02;83.29;;
74496;Laerm;62979;55.720;37.606;2022-12-13T00:11:57;52.39;46.31;76.00;;
74496;Laerm;62979;55.720;37.606;2022-12-13T00:14:24;51.05;45.21;72.99;;
74496;Laerm;62979;55.720;37.606;2022-12-13T00:16:51;50.73;44.76;73.60;;
74496;Laerm;62979;55.720;37.606;2022-12-13T00:19:18;53.79;45.53;86.43;;
74496;Laerm;62979;55.720;37.606;2022-12-13T00:21:45;50.32;44.61;75.01;;
74496;Laerm;62979;55.720;37.606;2022-12-13T00:24:13;48.89;44.22;70.11;;
74496;Laerm;62979;55.720;37.606;2022-12-13T00:26:42;51.76;44.63;73.82;;
74496;Laerm;62979;55.720;37.606;2022-12-13T00:29:10;53.92;44.37;85.16;;
74496;Laerm;62979;55.720;37.606;2022-12-13T00:31:37;49.33;45.18;65.57;;
74496;Laerm;62979;55.720;37.606;2022-12-13T00:34:04;50.19;45.42;73.73;;
74496;Laerm;62979;55.720;37.606;2022-12-13T00:36:31;48.98;44.70;69.00;;
74496;Laerm;62979;55.720;37.606;2022-12-13T00:38:58;49.83;45.10;79.65;;
74496;Laerm;62979;55.720;37.606;2022-12-13T00:41:30;50.97;44.75;80.74;;
74496;Laerm;62979;55.720;37.606;2022-12-13T00:44:00;49.38;44.57;72.28;;
74496;Laerm;62979;55.720;37.606;2022-12-13T00:46:28;49.05;44.55;70.73;;
74496;Laerm;62979;55.720;37.606;2022-12-13T00:48:57;50.33;44.81;72.61;;
74496;Laerm;62979;55.720;37.606;2022-12-13T00:51:27;49.57;44.85;72.17;;
74496;Laerm;62979;55.720;37.606;2022-12-13T00:53:54;48.97;43.72;70.20;;
74496;Laerm;62979;55.720;37.606;2022-12-13T00:56:24;50.97;44.41;64.59;;
74496;Laerm;62979;55.720;37.606;2022-12-13T00:58:53;49.96;45.08;71.09;;
74496;Laerm;62979;55.720;37.606;2022-12-13T01:01:23;49.43;44.99;69.18;;
74496;Laerm;62979;55.720;37.606;2022-12-13T01:03:52;48.92;44.52;76.13;;
74496;Laerm;62979;55.720;37.606;2022-12-13T01:06:22;49.32;44.89;67.11;;
74496;Laerm;62979;55.720;37.606;2022-12-13T01:08:51;49.29;44.06;70.78;;
74496;Laerm;62979;55.720;37.606;2022-12-13T01:11:19;48.60;44.64;70.11;;
74496;Laerm;62979;55.720;37.606;2022-12-13T01:13:46;48.97;44.36;73.43;;
74496;Laerm;62979;55.720;37.606;2022-12-13T01:16:13;49.54;43.72;73.45;;
74496;Laerm;62979;55.720;37.606;2022-12-13T01:18:43;49.53;44.20;76.07;;
74496;Laerm;62979;55.720;37.606;2022-12-13T01:21:13;48.18;44.22;63.69;;
74496;Laerm;62979;55.720;37.606;2022-12-13T01:23:42;48.62;44.25;73.01;;
74496;Laerm;62979;55.720;37.606;2022-12-13T01:26:12;50.63;44.08;72.25;;
74496;Laerm;62979;55.720;37.606;2022-12-13T01:28:40;49.04;44.56;75.44;;
74496;Laerm;62979;55.720;37.606;2022-12-13T01:31:10;49.04;43.89;71.61;;
74496;Laerm;62979;55.720;37.606;2022-12-13T01:33:37;49.28;44.39;74.18;;
74496;Laerm;62979;55.720;37.606;2022-12-13T01:36:09;48.57;44.52;65.69;;
74496;Laerm;62979;55.720;37.606;2022-12-13T01:38:36;48.24;44.58;63.52;;
74496;Laerm;62979;55.720;37.606;2022-12-13T01:41:04;48.28;44.62;63.72;;
74496;Laerm;62979;55.720;37.606;2022-12-13T01:43:52;48.04;43.84;66.67;;
74496;Laerm;62979;55.720;37.606;2022-12-13T01:46:19;52.42;44.02;66.36;;
74496;Laerm;62979;55.720;37.606;2022-12-13T01:48:54;48.33;44.03;68.36;;
74496;Laerm;62979;55.720;37.606;2022-12-13T01:51:31;51.92;44.24;71.63;;
74496;Laerm;62979;55.720;37.606;2022-12-13T01:54:02;48.64;43.59;72.35;;
74496;Laerm;62979;55.720;37.606;2022-12-13T01:56:36;51.40;44.45;74.36;;
74496;Laerm;62979;55.720;37.606;2022-12-13T01:59:06;49.58;44.35;61.89;;
74496;Laerm;62979;55.720;37.606;2022-12-13T02:01:35;48.16;44.46;65.39;;
74496;Laerm;62979;55.720;37.606;2022-12-13T02:04:03;48.29;44.58;63.77;;
74496;Laerm;62979;55.720;37.606;2022-12-13T02:06:35;51.58;44.65;68.03;;
74496;Laerm;62979;55.720;37.606;2022-12-13T02:09:05;48.45;43.99;61.45;;
74496;Laerm;62979;55.720;37.606;2022-12-13T02:11:37;49.17;44.47;72.18;;
74496;Laerm;62979;55.720;37.606;2022-12-13T02:14:04;49.66;44.73;73.71;;
74496;Laerm;62979;55.720;37.606;2022-12-13T02:16:47;49.81;44.67;77.90;;
74496;Laerm;62979;55.720;37.606;2022-12-13T02:20:09;52.90;44.43;66.38;;
74496;Laerm;62979;55.720;37.606;2022-12-13T02:23:10;49.62;44.15;61.89;;
74496;Laerm;62979;55.720;37.606;2022-12-13T02:26:06;50.89;45.40;75.88;;
74496;Laerm;62979;55.720;37.606;2022-12-13T02:29:05;51.84;45.62;72.60;;
74496;Laerm;62979;55.720;37.606;2022-12-13T02:31:47;52.16;44.97;77.64;;
74496;Laerm;62979;55.720;37.606;2022-12-13T02:34:24;51.34;44.49;69.40;;
74496;Laerm;62979;55.720;37.606;2022-12-13T02:37:02;54.08;44.98;64.79;;
74496;Laerm;62979;55.720;37.606;2022-12-13T02:39:34;49.67;45.07;68.90;;
74496;Laerm;62979;55.720;37.606;2022-12-13T02:42:12;63.59;48.33;77.73;;
74496;Laerm;62979;55.720;37.606;2022-12-13T02:44:50;49.81;45.68;73.14;;
74496;Laerm;62979;55.720;37.606;2022-12-13T02:47:24;51.24;45.72;65.25;;
74496;Laerm;62979;55.720;37.606;2022-12-13T02:49:57;56.26;46.88;75.89;;
74496;Laerm;62979;55.720;37.606;2022-12-13T02:52:28;56.02;46.64;77.31;;
74496;Laerm;62979;55.720;37.606;2022-12-13T02:54:57;56.58;48.08;75.23;;
74496;Laerm;62979;55.720;37.606;2022-12-13T02:57:30;62.61;48.96;74.80;;
74496;Laerm;62979;55.720;37.606;2022-12-13T03:00:05;57.32;48.59;74.14;;
74496;Laerm;62979;55.720;37.606;2022-12-13T03:02:48;54.35;47.45;85.34;;
74496;Laerm;62979;55.720;37.606;2022-12-13T03:05:34;53.13;47.24;79.94;;
74496;Laerm;62979;55.720;37.606;2022-12-13T03:08:25;53.01;47.66;77.10;;
74496;Laerm;62979;55.720;37.606;2022-12-13T03:11:04;55.23;46.69;74.75;;
74496;Laerm;62979;55.720;37.606;2022-12-13T03:13:45;50.43;46.08;66.68;;
74496;Laerm;62979;55.720;37.606;2022-12-13T03:16:28;52.30;45.94;74.09;;
74496;Laerm;62979;55.720;37.606;2022-12-13T03:19:05;56.98;47.26;74.82;;
74496;Laerm;62979;55.720;37.606;2022-12-13T03:21:38;57.21;47.07;76.60;;
74496;Laerm;62979;55.720;37.606;2022-12-13T03:24:06;53.76;46.38;74.98;;
74496;Laerm;62979;55.720;37.606;2022-12-13T03:26:34;56.65;46.80;79.93;;
74496;Laerm;62979;55.720;37.606;2022-12-13T03:29:03;53.88;47.39;70.41;;
74496;Laerm;62979;55.720;37.606;2022-12-13T03:31:30;56.23;47.49;72.83;;
74496;Laerm;62979;55.720;37.606;2022-12-13T03:33:57;55.83;47.34;72.66;;
74496;Laerm;62979;55.720;37.606;2022-12-13T03:36:26;56.44;47.90;69.42;;
74496;Laerm;62979;55.720;37.606;2022-12-13T03:38:54;56.19;48.19;66.37;;
74496;Laerm;62979;55.720;37.606;2022-12-13T03:41:24;54.40;47.91;72.87;;
74496;Laerm;62979;55.720;37.606;2022-12-13T03:43:56;56.01;47.87;73.13;;
74496;Laerm;62979;55.720;37.606;2022-12-13T03:46:23;55.25;48.10;72.88;;
74496;Laerm;62979;55.720;37.606;2022-12-13T03:48:50;53.77;48.05;75.26;;
74496;Laerm;62979;55.720;37.606;2022-12-13T03:51:17;57.14;48.38;71.04;;
74496;Laerm;62979;55.720;37.606;2022-12-13T03:53:45;53.63;48.49;74.90;;
74496;Laerm;62979;55.720;37.606;2022-12-13T03:56:12;58.12;49.77;74.81;;
74496;Laerm;62979;55.720;37.606;2022-12-13T03:58:39;62.10;50.62;71.19;;
74496;Laerm;62979;55.720;37.606;2022-12-13T04:01:10;56.73;49.35;69.76;;
74496;Laerm;62979;55.720;37.606;2022-12-13T04:03:39;52.89;48.05;74.75;;
74496;Laerm;62979;55.720;37.606;2022-12-13T04:06:07;58.14;49.28;77.24;;
74496;Laerm;62979;55.720;37.606;2022-12-13T04:08:35;56.88;48.38;73.31;;
74496;Laerm;62979;55.720;37.606;2022-12-13T04:11:05;56.07;48.29;75.91;;
74496;Laerm;62979;55.720;37.606;2022-12-13T04:13:46;58.26;50.58;73.90;;
74496;Laerm;62979;55.720;37.606;2022-12-13T04:16:13;57.47;49.29;71.47;;
74496;Laerm;62979;55.720;37.606;2022-12-13T04:18:40;55.12;49.79;65.09;;
74496;Laerm;62979;55.720;37.606;2022-12-13T04:21:07;60.82;53.63;75.25;;
74496;Laerm;62979;55.720;37.606;2022-12-13T04:23:34;56.13;49.82;73.72;;
74496;Laerm;62979;55.720;37.606;2022-12-13T04:26:01;56.92;49.11;74.57;;
74496;Laerm;62979;55.720;37.606;2022-12-13T04:28:30;56.69;48.78;71.08;;
74496;Laerm;62979;55.720;37.606;2022-12-13T04:30:56;58.54;50.33;74.37;;
74496;Laerm;62979;55.720;37.606;2022-12-13T04:33:24;59.33;51.39;77.02;;
74496;Laerm;62979;55.720;37.606;2022-12-13T04:35:51;57.90;50.91;73.84;;
74496;Laerm;62979;55.720;37.606;2022-12-13T04:38:18;56.71;49.86;72.74;;
74496;Laerm;62979;55.720;37.606;2022-12-13T04:40:45;59.92;51.22;68.66;;
74496;Laerm;62979;55.720;37.606;2022-12-13T04:43:12;60.10;50.57;72.12;;
74496;Laerm;62979;55.720;37.606;2022-12-13T04:45:40;58.59;50.49;73.37;;
74496;Laerm;62979;55.720;37.606;2022-12-13T04:48:07;59.17;52.45;76.21;;
74496;Laerm;62979;55.720;37.606;2022-12-13T04:50:35;58.91;52.09;75.56;;
74496;Laerm;62979;55.720;37.606;2022-12-13T04:53:02;60.84;54.46;74.07;;
74496;Laerm;62979;55.720;37.606;2022-12-13T04:55:29;60.47;53.47;79.47;;
74496;Laerm;62979;55.720;37.606;2022-12-13T04:57:56;60.75;51.72;72.10;;
74496;Laerm;62979;55.720;37.606;2022-12-13T05:00:23;60.06;52.37;71.47;;
74496;Laerm;62979;55.720;37.606;2022-12-13T05:02:51;61.82;54.83;72.23;;
74496;Laerm;62979;55.720;37.606;2022-12-13T05:05:18;63.37;55.86;74.65;;
74496;Laerm;62979;55.720;37.606;2022-12-13T05:07:45;60.73;51.81;75.86;;
74496;Laerm;62979;55.720;37.606;2022-12-13T05:10:12;61.38;56.45;74.78;;
74496;Laerm;62979;55.720;37.606;2022-12-13T05:12:39;61.76;55.61;78.06;;
74496;Laerm;62979;55.720;37.606;2022-12-13T05:15:07;63.33;56.34;73.74;;
74496;Laerm;62979;55.720;37.606;2022-12-13T05:17:34;64.77;56.93;76.76;;
74496;Laerm;62979;55.720;37.606;2022-12-13T05:20:04;62.99;56.35;74.03;;
74496;Laerm;62979;55.720;37.606;2022-12-13T05:22:31;62.91;58.01;74.62;;
74496;Laerm;62979;55.720;37.606;2022-12-13T05:24:58;61.92;54.67;75.16;;
74496;Laerm;62979;55.720;37.606;2022-12-13T05:27:25;60.90;54.01;68.46;;
74496;Laerm;62979;55.720;37.606;2022-12-13T05:29:52;61.61;54.94;73.66;;
74496;Laerm;62979;55.720;37.606;2022-12-13T05:32:19;62.19;54.62;85.45;;
74496;Laerm;62979;55.720;37.606;2022-12-13T05:34:45;62.77;56.32;78.03;;
74496;Laerm;62979;55.720;37.606;2022-12-13T05:37:14;62.05;56.83;67.54;;
74496;Laerm;62979;55.720;37.606;2022-12-13T05:39:41;60.48;53.96;70.52;;
74496;Laerm;62979;55.720;37.606;2022-12-13T05:42:08;62.48;56.07;73.86;;
74496;Laerm;62979;55.720;37.606;2022-12-13T05:44:36;63.46;54.97;80.00;;
74496;Laerm;62979;55.720;37.606;2022-12-13T05:47:03;63.00;55.92;72.00;;
74496;Laerm;62979;55.720;37.606;2022-12-13T05:49:29;62.02;55.40;72.52;;
74496;Laerm;62979;55.720;37.606;2022-12-13T05:51:56;61.00;53.20;73.20;;
74496;Laerm;62979;55.720;37.606;2022-12-13T05:54:25;60.00;50.79;76.64;;
74496;Laerm;62979;55.720;37.606;2022-12-13T05:56:52;61.13;54.09;67.58;;
74496;Laerm;62979;55.720;37.606;2022-12-13T05:59:18;60.69;53.56;67.26;;
74496;Laerm;62979;55.720;37.606;2022-12-13T06:01:45;61.58;54.81;89.89;;
74496;Laerm;62979;55.720;37.606;2022-12-13T06:04:12;59.57;54.92;74.97;;
74496;Laerm;62979;55.720;37.606;2022-12-13T06:06:39;61.26;54.30;70.30;;
74496;Laerm;62979;55.720;37.606;2022-12-13T06:09:06;60.51;52.18;66.84;;
74496;Laerm;62979;55.720;37.606;2022-12-13T06:11:34;60.78;54.17;72.75;;
74496;Laerm;62979;55.720;37.606;2022-12-13T06:14:01;60.85;53.81;70.19;;
74496;Laerm;62979;55.720;37.606;2022-12-13T06:16:28;59.47;52.62;76.07;;
74496;Laerm;62979;55.720;37.606;2022-12-13T06:18:55;59.30;53.34;71.30;;
74496;Laerm;62979;55.720;37.606;2022-12-13T06:21:22;60.99;51.11;69.75;;
74496;Laerm;62979;55.720;37.606;2022-12-13T06:23:49;59.88;53.05;70.30;;
74496;Laerm;62979;55.720;37.606;2022-12-13T06:26:16;61.32;54.19;74.03;;
74496;Laerm;62979;55.720;37.606;2022-12-13T06:28:44;60.46;53.97;68.78;;
74496;Laerm;62979;55.720;37.606;2022-12-13T06:31:11;61.21;52.34;71.42;;
74496;Laerm;62979;55.720;37.606;2022-12-13T06:33:38;61.11;53.90;78.65;;
74496;Laerm;62979;55.720;37.606;2022-12-13T06:36:06;59.13;51.60;71.81;;
74496;Laerm;62979;55.720;37.606;2022-12-13T06:38:33;60.93;53.32;70.19;;
74496;Laerm;62979;55.720;37.606;2022-12-13T06:41:09;59.21;51.35;73.58;;
74496;Laerm;62979;55.720;37.606;2022-12-13T06:43:36;59.22;52.41;65.80;;
74496;Laerm;62979;55.720;37.606;2022-12-13T06:46:05;57.58;49.88;63.63;;
74496;Laerm;62979;55.720;37.606;2022-12-13T06:48:32;59.94;54.24;67.75;;
74496;Laerm;62979;55.720;37.606;2022-12-13T06:51:00;61.48;53.16;71.53;;
74496;Laerm;62979;55.720;37.606;2022-12-13T06:53:28;62.00;54.32;73.57;;
74496;Laerm;62979;55.720;37.606;2022-12-13T06:55:55;60.35;53.05;75.78;;
74496;Laerm;62979;55.720;37.606;2022-12-13T06:58:22;62.13;53.27;76.74;;
74496;Laerm;62979;55.720;37.606;2022-12-13T07:00:49;60.32;52.42;71.12;;
74496;Laerm;62979;55.720;37.606;2022-12-13T07:03:17;59.57;52.83;69.68;;
74496;Laerm;62979;55.720;37.606;2022-12-13T07:05:44;60.89;53.39;74.17;;
74496;Laerm;62979;55.720;37.606;2022-12-13T07:08:11;60.23;52.31;70.66;;
74496;Laerm;62979;55.720;37.606;2022-12-13T07:10:39;58.56;53.17;66.33;;
74496;Laerm;62979;55.720;37.606;2022-12-13T07:13:06;60.66;53.85;77.34;;
74496;Laerm;62979;55.720;37.606;2022-12-13T07:15:33;60.29;52.45;68.59;;
74496;Laerm;62979;55.720;37.606;2022-12-13T07:17:59;60.81;53.99;68.50;;
74496;Laerm;62979;55.720;37.606;2022-12-13T07:20:28;60.91;54.73;70.67;;
74496;Laerm;62979;55.720;37.606;2022-12-13T07:22:55;60.88;53.56;78.85;;
74496;Laerm;62979;55.720;37.606;2022-12-13T07:25:22;61.17;52.00;69.28;;
74496;Laerm;62979;55.720;37.606;2022-12-13T07:27:57;61.01;53.96;75.59;;
74496;Laerm;62979;55.720;37.606;2022-12-13T07:30:25;60.59;52.89;74.82;;
74496;Laerm;62979;55.720;37.606;2022-12-13T07:32:52;60.77;52.54;72.00;;
74496;Laerm;62979;55.720;37.606;2022-12-13T07:35:19;62.96;55.71;72.55;;
74496;Laerm;62979;55.720;37.606;2022-12-13T07:37:47;61.69;53.36;75.78;;
74496;Laerm;62979;55.720;37.606;2022-12-13T07:40:15;61.28;53.12;73.34;;
74496;Laerm;62979;55.720;37.606;2022-12-13T07:42:48;63.39;54.93;82.56;;
74496;Laerm;62979;55.720;37.606;2022-12-13T07:45:15;59.72;54.30;85.65;;
74496;Laerm;62979;55.720;37.606;2022-12-13T07:47:42;60.54;52.69;73.35;;
74496;Laerm;62979;55.720;37.606;2022-12-13T07:50:10;61.51;55.03;69.76;;
74496;Laerm;62979;55.720;37.606;2022-12-13T07:52:38;59.98;53.24;70.06;;
74496;Laerm;62979;55.720;37.606;2022-12-13T07:55:07;60.16;53.38;69.62;;
74496;Laerm;62979;55.720;37.606;2022-12-13T07:57:35;60.25;53.83;73.97;;
74496;Laerm;62979;55.720;37.606;2022-12-13T08:00:03;60.99;55.69;66.21;;
74496;Laerm;62979;55.720;37.606;2022-12-13T08:02:30;61.61;54.91;78.86;;
74496;Laerm;62979;55.720;37.606;2022-12-13T08:04:57;59.69;52.39;66.33;;
74496;Laerm;62979;55.720;37.606;2022-12-13T08:07:24;58.57;52.12;66.49;;
74496;Laerm;62979;55.720;37.606;2022-12-13T08:09:51;60.42;53.61;66.53;;
74496;Laerm;62979;55.720;37.606;2022-12-13T08:12:21;60.25;53.15;72.72;;
74496;Laerm;62979;55.720;37.606;2022-12-13T08:14:48;60.03;54.76;76.51;;
74496;Laerm;62979;55.720;37.606;2022-12-13T08:17:14;60.44;54.83;74.18;;
74496;Laerm;62979;55.720;37.606;2022-12-13T08:19:41;59.92;53.33;79.16;;
74496;Laerm;62979;55.720;37.606;2022-12-13T08:22:11;61.04;55.07;68.00;;
74496;Laerm;62979;55.720;37.606;2022-12-13T08:24:39;60.52;54.22;67.98;;
74496;Laerm;62979;55.720;37.606;2022-12-13T08:27:06;57.64;52.49;67.46;;
74496;Laerm;62979;55.720;37.606;2022-12-13T08:29:34;59.53;52.62;68.06;;
74496;Laerm;62979;55.720;37.606;2022-12-13T08:32:02;58.99;52.59;66.02;;
74496;Laerm;62979;55.720;37.606;2022-12-13T08:34:30;59.57;53.19;77.55;;
74496;Laerm;62979;55.720;37.606;2022-12-13T08:36:57;58.33;50.56;66.62;;
74496;Laerm;62979;55.720;37.606;2022-12-13T08:39:24;61.21;52.08;72.36;;
74496;Laerm;62979;55.720;37.606;2022-12-13T08:41:51;60.82;53.38;67.52;;
74496;Laerm;62979;55.720;37.606;2022-12-13T08:44:18;61.07;55.48;73.30;;
74496;Laerm;62979;55.720;37.606;2022-12-13T08:46:46;60.55;53.66;65.90;;
74496;Laerm;62979;55.720;37.606;2022-12-13T08:49:13;60.86;54.58;72.99;;
74496;Laerm;62979;55.720;37.606;2022-12-13T08:51:40;60.41;52.62;71.94;;
74496;Laerm;62979;55.720;37.606;2022-12-13T08:54:07;61.46;54.95;77.34;;
74496;Laerm;62979;55.720;37.606;2022-12-13T08:56:34;60.02;52.29;79.67;;
74496;Laerm;62979;55.720;37.606;2022-12-13T08:59:01;60.05;52.45;75.26;;
74496;Laerm;62979;55.720;37.606;2022-12-13T09:01:28;61.21;52.46;73.72;;
74496;Laerm;62979;55.720;37.606;2022-12-13T09:03:56;62.07;55.52;85.53;;
74496;Laerm;62979;55.720;37.606;2022-12-13T09:06:23;62.25;56.03;73.00;;
74496;Laerm;62979;55.720;37.606;2022-12-13T09:08:52;61.12;55.02;70.49;;
74496;Laerm;62979;55.720;37.606;2022-12-13T09:11:19;61.18;55.69;68.10;;
74496;Laerm;62979;55.720;37.606;2022-12-13T09:13:47;61.05;53.87;85.32;;
74496;Laerm;62979;55.720;37.606;2022-12-13T09:16:16;61.20;53.32;70.91;;
74496;Laerm;62979;55.720;37.606;2022-12-13T09:18:44;62.00;54.93;73.83;;
74496;Laerm;62979;55.720;37.606;2022-12-13T09:21:14;61.48;54.90;83.01;;
74496;Laerm;62979;55.720;37.606;2022-12-13T09:23:41;60.88;55.07;81.89;;
74496;Laerm;62979;55.720;37.606;2022-12-13T09:26:10;60.32;54.94;73.15;;
74496;Laerm;62979;55.720;37.606;2022-12-13T09:28:39;61.14;54.31;82.58;;
74496;Laerm;62979;55.720;37.606;2022-12-13T09:31:07;60.91;55.73;69.58;;
74496;Laerm;62979;55.720;37.606;2022-12-13T09:33:34;60.14;52.41;68.36;;
74496;Laerm;62979;55.720;37.606;2022-12-13T09:36:03;60.27;51.19;67.08;;
74496;Laerm;62979;55.720;37.606;2022-12-13T09:38:33;59.86;54.07;70.08;;
74496;Laerm;62979;55.720;37.606;2022-12-13T09:41:13;60.48;52.91;68.07;;
74496;Laerm;62979;55.720;37.606;2022-12-13T09:43:42;60.52;52.87;67.19;;
74496;Laerm;62979;55.720;37.606;2022-12-13T09:46:24;59.62;51.84;66.18;;
74496;Laerm;62979;55.720;37.606;2022-12-13T09:48:54;60.53;54.84;66.48;;
74496;Laerm;62979;55.720;37.606;2022-12-13T09:51:24;60.57;51.94;68.83;;
74496;Laerm;62979;55.720;37.606;2022-12-13T09:53:53;61.54;53.89;67.08;;
74496;Laerm;62979;55.720;37.606;2022-12-13T09:56:22;59.10;53.28;66.95;;
74496;Laerm;62979;55.720;37.606;2022-12-13T09:58:51;60.13;54.18;71.81;;
74496;Laerm;62979;55.720;37.606;2022-12-13T10:01:20;62.35;55.95;72.06;;
74496;Laerm;62979;55.720;37.606;2022-12-13T10:03:50;59.49;52.39;71.04;;
74496;Laerm;62979;55.720;37.606;2022-12-13T10:06:21;60.08;51.66;68.74;;
74496;Laerm;62979;55.720;37.606;2022-12-13T10:08:51;59.31;51.20;67.58;;
74496;Laerm;62979;55.720;37.606;2022-12-13T10:11:21;58.22;51.26;67.92;;
74496;Laerm;62979;55.720;37.606;2022-12-13T10:13:56;60.15;52.66;69.47;;
74496;Laerm;62979;55.720;37.606;2022-12-13T10:16:30;56.98;50.01;64.38;;
74496;Laerm;62979;55.720;37.606;2022-12-13T10:19:15;60.35;53.79;67.41;;
74496;Laerm;62979;55.720;37.606;2022-12-13T10:21:45;61.01;53.95;65.96;;
74496;Laerm;62979;55.720;37.606;2022-12-13T10:24:18;59.87;53.60;65.42;;
74496;Laerm;62979;55.720;37.606;2022-12-13T10:26:47;59.32;53.82;79.49;;
74496;Laerm;62979;55.720;37.606;2022-12-13T10:29:14;58.27;52.89;65.92;;
74496;Laerm;62979;55.720;37.606;2022-12-13T10:31:43;59.33;51.92;68.04;;
74496;Laerm;62979;55.720;37.606;2022-12-13T10:34:22;61.16;53.61;69.02;;
74496;Laerm;62979;55.720;37.606;2022-12-13T10:36:50;59.81;53.65;66.47;;
74496;Laerm;62979;55.720;37.606;2022-12-13T10:39:35;60.35;52.80;85.44;;
74496;Laerm;62979;55.720;37.606;2022-12-13T10:42:13;60.35;54.75;75.25;;
74496;Laerm;62979;55.720;37.606;2022-12-13T10:44:40;62.43;54.57;75.78;;
74496;Laerm;62979;55.720;37.606;2022-12-13T10:47:16;63.26;57.38;72.19;;
74496;Laerm;62979;55.720;37.606;2022-12-13T10:49:51;64.41;58.06;82.55;;
74496;Laerm;62979;55.720;37.606;2022-12-13T10:52:27;63.15;57.58;78.67;;
74496;Laerm;62979;55.720;37.606;2022-12-13T10:54:59;62.62;56.39;76.60;;
74496;Laerm;62979;55.720;37.606;2022-12-13T10:57:30;60.33;55.21;66.34;;
74496;Laerm;62979;55.720;37.606;2022-12-13T10:59:57;60.01;52.90;65.39;;
74496;Laerm;62979;55.720;37.606;2022-12-13T11:02:33;60.60;55.20;69.28;;
74496;Laerm;62979;55.720;37.606;2022-12-13T11:05:23;62.66;52.66;84.39;;
74496;Laerm;62979;55.720;37.606;2022-12-13T11:07:51;61.04;51.30;71.46;;
74496;Laerm;62979;55.720;37.606;2022-12-13T11:10:25;61.19;53.77;67.97;;
74496;Laerm;62979;55.720;37.606;2022-12-13T11:13:00;60.84;53.02;66.06;;
74496;Laerm;62979;55.720;37.606;2022-12-13T11:15:30;59.54;52.03;67.40;;
74496;Laerm;62979;55.720;37.606;2022-12-13T11:18:01;61.98;55.41;68.53;;
74496;Laerm;62979;55.720;37.606;2022-12-13T11:20:32;61.95;55.46;76.24;;
74496;Laerm;62979;55.720;37.606;2022-12-13T11:23:05;61.41;52.52;75.23;;
74496;Laerm;62979;55.720;37.606;2022-12-13T11:25:39;61.48;55.38;75.09;;
74496;Laerm;62979;55.720;37.606;2022-12-13T11:28:23;61.30;54.86;71.74;;
74496;Laerm;62979;55.720;37.606;2022-12-13T11:31:09;61.08;54.24;71.27;;
74496;Laerm;62979;55.720;37.606;2022-12-13T11:33:51;61.73;54.40;72.87;;
74496;Laerm;62979;55.720;37.606;2022-12-13T11:36:34;61.29;55.21;72.17;;
74496;Laerm;62979;55.720;37.606;2022-12-13T11:39:17;61.92;54.78;70.57;;
74496;Laerm;62979;55.720;37.606;2022-12-13T11:41:52;61.42;54.88;74.21;;
74496;Laerm;62979;55.720;37.606;2022-12-13T11:44:36;61.97;53.70;75.17;;
74496;Laerm;62979;55.720;37.606;2022-12-13T11:47:13;62.75;56.38;80.61;;
74496;Laerm;62979;55.720;37.606;2022-12-13T11:49:44;63.81;56.99;78.46;;
74496;Laerm;62979;55.720;37.606;2022-12-13T11:52:20;66.24;59.47;82.67;;
74496;Laerm;62979;55.720;37.606;2022-12-13T11:54:56;63.83;56.04;84.52;;
74496;Laerm;62979;55.720;37.606;2022-12-13T11:57:36;62.00;56.81;77.77;;
74496;Laerm;62979;55.720;37.606;2022-12-13T12:00:26;61.50;56.54;74.77;;
74496;Laerm;62979;55.720;37.606;2022-12-13T12:03:08;61.08;55.70;70.23;;
74496;Laerm;62979;55.720;37.606;2022-12-13T12:05:45;61.54;55.87;71.42;;
74496;Laerm;62979;55.720;37.606;2022-12-13T12:08:21;61.86;54.56;75.57;;
74496;Laerm;62979;55.720;37.606;2022-12-13T12:11:02;61.46;54.99;70.92;;
74496;Laerm;62979;55.720;37.606;2022-12-13T12:13:38;61.45;55.88;70.32;;
74496;Laerm;62979;55.720;37.606;2022-12-13T12:16:16;60.20;53.57;68.09;;
74496;Laerm;62979;55.720;37.606;2022-12-13T12:18:45;65.97;59.09;83.08;;
74496;Laerm;62979;55.720;37.606;2022-12-13T12:21:29;64.13;55.19;82.56;;
74496;Laerm;62979;55.720;37.606;2022-12-13T12:24:14;62.26;52.37;73.43;;
74496;Laerm;62979;55.720;37.606;2022-12-13T12:26:56;60.92;53.54;68.17;;
74496;Laerm;62979;55.720;37.606;2022-12-13T12:29:48;61.67;53.08;67.82;;
74496;Laerm;62979;55.720;37.606;2022-12-13T12:32:27;59.83;53.45;67.25;;
74496;Laerm;62979;55.720;37.606;2022-12-13T12:35:17;59.04;52.83;65.81;;
74496;Laerm;62979;55.720;37.606;2022-12-13T12:37:53;60.36;53.85;70.10;;
74496;Laerm;62979;55.720;37.606;2022-12-13T12:40:49;61.42;54.35;68.73;;
74496;Laerm;62979;55.720;37.606;2022-12-13T12:43:30;62.45;54.13;78.30;;
74496;Laerm;62979;55.720;37.606;2022-12-13T12:46:14;61.03;55.41;71.81;;
74496;Laerm;62979;55.720;37.606;2022-12-13T12:49:27;62.25;53.70;90.20;;
74496;Laerm;62979;55.720;37.606;2022-12-13T12:52:04;60.47;52.22;89.36;;
74496;Laerm;62979;55.720;37.606;2022-12-13T12:54:47;60.63;54.16;78.13;;
74496;Laerm;62979;55.720;37.606;2022-12-13T12:57:26;61.23;54.78;77.49;;
74496;Laerm;62979;55.720;37.606;2022-12-13T13:00:03;60.86;53.74;67.75;;
74496;Laerm;62979;55.720;37.606;2022-12-13T13:02:39;64.41;56.25;73.29;;
74496;Laerm;62979;55.720;37.606;2022-12-13T13:05:20;60.13;53.88;65.86;;
74496;Laerm;62979;55.720;37.606;2022-12-13T13:07:53;59.84;53.09;66.65;;
74496;Laerm;62979;55.720;37.606;2022-12-13T13:10:23;61.08;54.74;68.54;;
74496;Laerm;62979;55.720;37.606;2022-12-13T13:12:52;61.40;53.59;74.60;;
74496;Laerm;62979;55.720;37.606;2022-12-13T13:15:55;62.42;54.84;68.93;;
74496;Laerm;62979;55.720;37.606;2022-12-13T13:18:50;60.29;53.42;70.66;;
74496;Laerm;62979;55.720;37.606;2022-12-13T13:21:45;60.09;52.76;68.44;;
74496;Laerm;62979;55.720;37.606;2022-12-13T13:24:22;61.03;54.61;71.27;;
74496;Laerm;62979;55.720;37.606;2022-12-13T13:26:53;59.24;53.73;71.61;;
74496;Laerm;62979;55.720;37.606;2022-12-13T13:29:39;61.55;54.49;73.84;;
74496;Laerm;62979;55.720;37.606;2022-12-13T13:32:38;61.59;55.68;72.42;;
74496;Laerm;62979;55.720;37.606;2022-12-13T13:35:48;61.59;54.90;75.09;;
74496;Laerm;62979;55.720;37.606;2022-12-13T13:38:52;59.85;53.35;73.70;;
74496;Laerm;62979;55.720;37.606;2022-12-13T13:41:54;59.66;51.50;68.26;;
74496;Laerm;62979;55.720;37.606;2022-12-13T13:45:00;60.90;54.42;74.31;;
74496;Laerm;62979;55.720;37.606;2022-12-13T13:47:38;60.93;53.15;71.67;;
74496;Laerm;62979;55.720;37.606;2022-12-13T13:51:13;60.54;51.69;75.58;;
74496;Laerm;62979;55.720;37.606;2022-12-13T13:54:36;60.28;53.62;71.86;;
74496;Laerm;62979;55.720;37.606;2022-12-13T13:57:53;61.92;52.16;75.90;;
74496;Laerm;62979;55.720;37.606;2022-12-13T14:00:52;59.56;51.86;70.59;;
74496;Laerm;62979;55.720;37.606;2022-12-13T14:04:26;59.08;52.32;67.10;;